Time;durP1;ratioP1;P1;durP2;ratioP2;P2;SDS_P1;SDS_P2;PMS_P1;PMS_P2;Temp;Humidity;BMP_temperature;BMP_pressure;BME280_temperature;BME280_humidity;BME280_pressure;Samples;Min_cycle;Max_cycle;Signal;HPM_P1;HPM_P2
2021/11/13 00:01:49;;;;;;;13.85;9.80;;;;;;;;;;5098842;28;20620;-81
2021/11/13 00:04:17;;;;;;;12.25;10.77;;;;;;;;;;5098871;28;20207;-82
2021/11/13 00:06:44;;;;;;;11.27;8.23;;;;;;;;;;5101958;28;20176;-82
2021/11/13 00:09:14;;;;;;;10.98;8.32;;;;;;;;;;5101575;28;20198;-83
2021/11/13 00:11:42;;;;;;;11.43;9.43;;;;;;;;;;5100342;28;20216;-82
2021/11/13 00:14:16;;;;;;;11.43;9.48;;;;;;;;;;5100123;28;20177;-82
2021/11/13 00:16:48;;;;;;;11.40;9.75;;;;;;;;;;5100282;28;20561;-83
2021/11/13 00:19:16;;;;;;;11.38;8.18;;;;;;;;;;5101877;28;20200;-82
2021/11/13 00:21:44;;;;;;;11.75;8.63;;;;;;;;;;5101908;28;20220;-83
2021/11/13 00:24:18;;;;;;;10.80;8.70;;;;;;;;;;5100447;28;20196;-82
2021/11/13 00:26:52;;;;;;;12.95;9.70;;;;;;;;;;5100524;28;20648;-83
2021/11/13 00:29:29;;;;;;;9.88;8.18;;;;;;;;;;5103348;28;20177;-82
2021/11/13 00:31:58;;;;;;;12.40;8.48;;;;;;;;;;5102128;28;20584;-83
2021/11/13 00:34:26;;;;;;;10.68;8.77;;;;;;;;;;5101364;28;20181;-83
2021/11/13 00:36:55;;;;;;;8.95;7.68;;;;;;;;;;5100651;28;20200;-82
2021/11/13 00:39:23;;;;;;;10.32;7.63;;;;;;;;;;5101692;28;20556;-84
2021/11/13 00:41:55;;;;;;;9.80;7.97;;;;;;;;;;5100554;28;20601;-84
2021/11/13 00:44:22;;;;;;;11.15;8.85;;;;;;;;;;5101085;28;20181;-85
2021/11/13 00:47:02;;;;;;;7.88;6.95;;;;;;;;;;5101131;28;20176;-82
2021/11/13 00:49:30;;;;;;;7.28;6.15;;;;;;;;;;5104118;28;20183;-84
2021/11/13 00:51:58;;;;;;;7.93;7.13;;;;;;;;;;5103386;28;20201;-83
2021/11/13 00:54:26;;;;;;;9.15;6.72;;;;;;;;;;5103014;28;20188;-82
2021/11/13 00:56:54;;;;;;;7.55;6.85;;;;;;;;;;5103328;28;20179;-84
2021/11/13 00:59:22;;;;;;;7.45;5.78;;;;;;;;;;5105848;28;20268;-84
2021/11/13 01:01:51;;;;;;;10.25;7.55;;;;;;;;;;5103793;28;20296;-83
2021/11/13 01:04:21;;;;;;;9.10;7.55;;;;;;;;;;5102902;28;20224;-83
2021/11/13 01:06:54;;;;;;;12.15;8.48;;;;;;;;;;5104428;28;20207;-82
2021/11/13 01:09:27;;;;;;;12.90;8.98;;;;;;;;;;5104382;28;20197;-85
2021/11/13 01:11:56;;;;;;;13.13;8.65;;;;;;;;;;5104046;28;20193;-85
2021/11/13 01:14:24;;;;;;;9.00;8.10;;;;;;;;;;5104027;28;20599;-85
2021/11/13 01:16:53;;;;;;;10.85;8.43;;;;;;;;;;5102488;28;20572;-85
2021/11/13 01:19:24;;;;;;;11.88;9.05;;;;;;;;;;5102387;28;20184;-82
2021/11/13 01:21:59;;;;;;;9.20;7.65;;;;;;;;;;5103305;28;20212;-86
2021/11/13 01:24:29;;;;;;;11.73;8.55;;;;;;;;;;5103152;28;20573;-83
2021/11/13 01:26:58;;;;;;;10.38;7.90;;;;;;;;;;5103963;28;20199;-84
2021/11/13 01:29:31;;;;;;;11.93;8.55;;;;;;;;;;5101525;28;20196;-83
2021/11/13 01:31:59;;;;;;;9.82;8.27;;;;;;;;;;5102078;28;20307;-82
2021/11/13 01:34:30;;;;;;;10.18;9.07;;;;;;;;;;5103960;28;20184;-82
2021/11/13 01:37:02;;;;;;;11.43;8.40;;;;;;;;;;5103215;28;20196;-83
2021/11/13 01:39:29;;;;;;;11.98;8.77;;;;;;;;;;5102274;28;20205;-84
2021/11/13 01:41:59;;;;;;;10.70;9.45;;;;;;;;;;5102088;28;20256;-82
2021/11/13 01:44:28;;;;;;;13.88;10.32;;;;;;;;;;5101941;28;20221;-83
2021/11/13 01:46:58;;;;;;;14.25;10.13;;;;;;;;;;5100847;28;20173;-82
2021/11/13 01:49:28;;;;;;;10.77;9.05;;;;;;;;;;5099774;28;20617;-84
2021/11/13 01:52:10;;;;;;;13.52;10.40;;;;;;;;;;5099730;28;20199;-82
2021/11/13 01:54:40;;;;;;;12.30;9.55;;;;;;;;;;5097077;28;20177;-83
2021/11/13 01:57:12;;;;;;;14.75;10.20;;;;;;;;;;5098753;28;20185;-82
2021/11/13 01:59:42;;;;;;;13.05;9.15;;;;;;;;;;5101174;28;20659;-83
2021/11/13 02:02:10;;;;;;;10.68;8.15;;;;;;;;;;5100085;28;20571;-82
2021/11/13 02:04:41;;;;;;;11.68;8.95;;;;;;;;;;5103756;28;20224;-83
2021/11/13 02:07:09;;;;;;;10.05;8.30;;;;;;;;;;5103612;28;20189;-85
2021/11/13 02:09:37;;;;;;;10.73;8.77;;;;;;;;;;5103738;28;20187;-82
2021/11/13 02:12:06;;;;;;;12.57;8.85;;;;;;;;;;5104029;28;20211;-82
2021/11/13 02:14:34;;;;;;;8.63;7.72;;;;;;;;;;5104813;28;20256;-84
2021/11/13 02:17:01;;;;;;;8.57;7.20;;;;;;;;;;5105295;28;20205;-85
2021/11/13 02:19:29;;;;;;;7.60;6.53;;;;;;;;;;5104815;28;20181;-84
2021/11/13 02:22:01;;;;;;;9.15;6.97;;;;;;;;;;5105575;28;20184;-83
2021/11/13 02:24:29;;;;;;;7.43;5.72;;;;;;;;;;5105994;28;20572;-83
2021/11/13 02:26:57;;;;;;;10.70;8.15;;;;;;;;;;5105134;28;20260;-82
2021/11/13 02:29:26;;;;;;;8.80;7.15;;;;;;;;;;5105510;28;20176;-82
2021/11/13 02:31:57;;;;;;;11.23;7.95;;;;;;;;;;5104602;28;20748;-82
2021/11/13 02:34:27;;;;;;;7.57;6.57;;;;;;;;;;5104599;28;20234;-83
2021/11/13 02:36:54;;;;;;;10.57;8.13;;;;;;;;;;5104706;28;20192;-83
2021/11/13 02:39:30;;;;;;;15.60;10.75;;;;;;;;;;5104423;28;20195;-83
2021/11/13 02:41:58;;;;;;;13.85;9.88;;;;;;;;;;5104464;28;20188;-83
2021/11/13 02:44:26;;;;;;;12.60;10.27;;;;;;;;;;5104036;28;20280;-82
2021/11/13 02:46:54;;;;;;;12.63;9.70;;;;;;;;;;5103509;28;20554;-84
2021/11/13 02:49:24;;;;;;;13.27;11.18;;;;;;;;;;5104895;28;20187;-84
2021/11/13 02:51:51;;;;;;;14.23;11.13;;;;;;;;;;5104388;28;20223;-84
2021/11/13 02:54:19;;;;;;;12.63;10.85;;;;;;;;;;5104999;28;20192;-83
2021/11/13 02:56:49;;;;;;;14.95;11.05;;;;;;;;;;5104709;28;20184;-84
2021/11/13 02:59:17;;;;;;;10.77;8.88;;;;;;;;;;5105145;28;20203;-84
2021/11/13 03:01:46;;;;;;;12.63;10.70;;;;;;;;;;5105056;28;20279;-83
2021/11/13 03:04:15;;;;;;;11.52;9.38;;;;;;;;;;5105265;28;20222;-84
2021/11/13 03:06:43;;;;;;;11.55;8.93;;;;;;;;;;5104978;28;20231;-85
2021/11/13 03:09:10;;;;;;;12.63;9.20;;;;;;;;;;5103933;28;20192;-84
2021/11/13 03:11:38;;;;;;;12.48;9.38;;;;;;;;;;5105138;28;20236;-83
2021/11/13 03:14:07;;;;;;;12.30;9.57;;;;;;;;;;5105110;28;20181;-84
2021/11/13 03:16:35;;;;;;;10.50;8.20;;;;;;;;;;5107031;28;20401;-83
2021/11/13 03:19:02;;;;;;;9.90;7.28;;;;;;;;;;5104818;28;20197;-86
2021/11/13 03:21:30;;;;;;;15.20;9.13;;;;;;;;;;5106979;28;20221;-84
2021/11/13 03:24:00;;;;;;;10.23;8.60;;;;;;;;;;5106721;28;20216;-83
2021/11/13 03:26:33;;;;;;;10.63;8.68;;;;;;;;;;5106875;28;20181;-85
2021/11/13 03:29:07;;;;;;;12.18;9.50;;;;;;;;;;5106376;28;20189;-83
2021/11/13 03:31:34;;;;;;;9.45;6.70;;;;;;;;;;5107841;28;20257;-83
2021/11/13 03:34:02;;;;;;;8.30;7.30;;;;;;;;;;5100953;28;20189;-83
2021/11/13 03:36:31;;;;;;;9.85;7.07;;;;;;;;;;5098890;28;20565;-82
2021/11/13 03:38:59;;;;;;;10.52;8.23;;;;;;;;;;5099197;28;20216;-85
2021/11/13 03:41:30;;;;;;;8.95;7.72;;;;;;;;;;5099747;28;20231;-85
2021/11/13 03:43:59;;;;;;;9.13;7.65;;;;;;;;;;5099701;28;20222;-83
2021/11/13 03:46:30;;;;;;;8.68;6.60;;;;;;;;;;5099673;28;20199;-82
2021/11/13 03:48:57;;;;;;;9.40;7.88;;;;;;;;;;5101086;28;20307;-85
2021/11/13 03:51:25;;;;;;;9.65;8.07;;;;;;;;;;5108415;28;20243;-85
2021/11/13 03:53:53;;;;;;;7.45;6.75;;;;;;;;;;5102024;28;20193;-83
2021/11/13 03:56:20;;;;;;;12.73;10.20;;;;;;;;;;5102889;28;20204;-84
2021/11/13 03:58:48;;;;;;;12.52;8.82;;;;;;;;;;5105212;28;20200;-84
2021/11/13 04:01:16;;;;;;;12.88;9.75;;;;;;;;;;5100431;28;20307;-85
2021/11/13 04:03:47;;;;;;;8.95;8.05;;;;;;;;;;5098226;28;20187;-82
2021/11/13 04:06:17;;;;;;;11.05;8.43;;;;;;;;;;5100667;28;20192;-83
2021/11/13 04:08:45;;;;;;;13.10;10.98;;;;;;;;;;5098518;28;20177;-84
2021/11/13 04:11:13;;;;;;;13.13;9.60;;;;;;;;;;5098603;28;20220;-82
2021/11/13 04:13:43;;;;;;;10.75;9.32;;;;;;;;;;5096612;28;20199;-81
2021/11/13 04:16:10;;;;;;;11.73;9.70;;;;;;;;;;5096065;28;20185;-84
2021/11/13 04:18:38;;;;;;;12.95;10.55;;;;;;;;;;5099693;28;20188;-83
2021/11/13 04:21:07;;;;;;;12.07;9.27;;;;;;;;;;5102673;28;20215;-85
2021/11/13 04:23:36;;;;;;;10.50;8.18;;;;;;;;;;5100358;28;20206;-84
2021/11/13 04:26:04;;;;;;;9.70;8.02;;;;;;;;;;5098319;28;20303;-86
2021/11/13 04:28:32;;;;;;;12.50;8.55;;;;;;;;;;5106908;28;20200;-86
2021/11/13 04:30:59;;;;;;;11.48;9.30;;;;;;;;;;5102429;28;20228;-84
2021/11/13 04:33:29;;;;;;;10.93;8.63;;;;;;;;;;5116234;28;20197;-85
2021/11/13 04:36:07;;;;;;;9.70;7.88;;;;;;;;;;5104978;28;20216;-85
2021/11/13 04:38:36;;;;;;;7.30;6.25;;;;;;;;;;5103198;28;20195;-85
2021/11/13 04:41:06;;;;;;;10.45;7.85;;;;;;;;;;5115500;28;20212;-84
2021/11/13 04:43:34;;;;;;;7.72;6.55;;;;;;;;;;5111641;28;20199;-84
2021/11/13 04:46:01;;;;;;;13.40;9.20;;;;;;;;;;5104660;28;20219;-85
2021/11/13 04:48:29;;;;;;;10.63;9.13;;;;;;;;;;5115044;28;20202;-84
2021/11/13 04:50:57;;;;;;;11.10;8.57;;;;;;;;;;5107774;28;20215;-84
2021/11/13 04:53:25;;;;;;;11.38;9.40;;;;;;;;;;5112704;28;20196;-84
2021/11/13 04:55:54;;;;;;;11.00;9.85;;;;;;;;;;5102411;28;20193;-83
2021/11/13 04:58:22;;;;;;;12.13;10.18;;;;;;;;;;5113188;28;20634;-85
2021/11/13 05:00:50;;;;;;;12.10;10.07;;;;;;;;;;5100567;28;20227;-83
2021/11/13 05:03:17;;;;;;;9.77;8.05;;;;;;;;;;5102502;28;20184;-84
2021/11/13 05:05:44;;;;;;;15.38;11.77;;;;;;;;;;5121266;28;20223;-85
2021/11/13 05:08:12;;;;;;;13.10;10.02;;;;;;;;;;5113154;28;20188;-86
2021/11/13 05:10:39;;;;;;;15.85;11.65;;;;;;;;;;5107617;28;20208;-83
2021/11/13 05:13:08;;;;;;;12.63;10.48;;;;;;;;;;5109723;28;20184;-85
2021/11/13 05:15:36;;;;;;;14.70;11.88;;;;;;;;;;5110744;28;20191;-84
2021/11/13 05:18:03;;;;;;;14.25;11.40;;;;;;;;;;5107661;28;20188;-84
2021/11/13 05:20:31;;;;;;;16.35;11.57;;;;;;;;;;5110799;28;20215;-85
2021/11/13 05:22:59;;;;;;;12.88;10.63;;;;;;;;;;5098791;28;20184;-85
2021/11/13 05:25:26;;;;;;;13.00;10.63;;;;;;;;;;5117360;28;20211;-84
2021/11/13 05:27:54;;;;;;;13.70;11.25;;;;;;;;;;5118936;28;20581;-84
2021/11/13 05:30:25;;;;;;;13.25;10.65;;;;;;;;;;5117722;28;20232;-82
2021/11/13 05:32:54;;;;;;;13.75;11.02;;;;;;;;;;5116370;28;20196;-85
2021/11/13 05:35:22;;;;;;;13.43;11.57;;;;;;;;;;5092905;28;20201;-85
2021/11/13 05:37:53;;;;;;;12.25;9.52;;;;;;;;;;5110847;28;20191;-84
2021/11/13 05:40:21;;;;;;;14.20;10.68;;;;;;;;;;5107871;28;20222;-85
2021/11/13 05:42:49;;;;;;;16.33;10.93;;;;;;;;;;5112082;28;20199;-83
2021/11/13 05:45:17;;;;;;;12.38;9.50;;;;;;;;;;5112318;28;20209;-85
2021/11/13 05:47:46;;;;;;;12.20;10.48;;;;;;;;;;5108850;28;20188;-85
2021/11/13 05:50:16;;;;;;;9.52;8.10;;;;;;;;;;5118509;28;20208;-85
2021/11/13 05:52:46;;;;;;;10.98;8.80;;;;;;;;;;5103597;28;20200;-87
2021/11/13 05:55:15;;;;;;;11.48;9.25;;;;;;;;;;5113709;28;20192;-85
2021/11/13 05:57:43;;;;;;;10.45;8.27;;;;;;;;;;5112197;28;20200;-83
2021/11/13 06:00:14;;;;;;;11.70;8.93;;;;;;;;;;5109331;28;20245;-83
2021/11/13 06:02:42;;;;;;;7.65;6.82;;;;;;;;;;5099054;28;20244;-87
2021/11/13 06:05:11;;;;;;;12.75;8.65;;;;;;;;;;5115882;28;20184;-86
2021/11/13 06:07:40;;;;;;;10.95;8.65;;;;;;;;;;5117008;28;20214;-84
2021/11/13 06:10:08;;;;;;;14.18;9.88;;;;;;;;;;5118690;28;20213;-86
2021/11/13 06:12:36;;;;;;;12.70;9.70;;;;;;;;;;5108834;28;20184;-85
2021/11/13 06:15:05;;;;;;;10.90;8.93;;;;;;;;;;5113360;28;20192;-87
2021/11/13 06:17:33;;;;;;;12.73;9.52;;;;;;;;;;5112135;28;20653;-85
2021/11/13 06:20:01;;;;;;;11.32;9.65;;;;;;;;;;5109067;28;20212;-84
2021/11/13 06:22:30;;;;;;;12.40;9.15;;;;;;;;;;5113959;28;20200;-85
2021/11/13 06:24:58;;;;;;;10.50;8.40;;;;;;;;;;5104783;28;20630;-85
2021/11/13 06:27:25;;;;;;;9.85;8.15;;;;;;;;;;5119012;28;20864;-84
2021/11/13 06:29:53;;;;;;;14.38;9.32;;;;;;;;;;5110714;28;20212;-84
2021/11/13 06:32:20;;;;;;;8.32;7.40;;;;;;;;;;5111837;28;20196;-87
2021/11/13 06:34:48;;;;;;;9.77;8.07;;;;;;;;;;5105380;28;20201;-87
2021/11/13 06:37:15;;;;;;;10.27;9.10;;;;;;;;;;5114606;28;20192;-85
2021/11/13 06:39:44;;;;;;;10.38;7.97;;;;;;;;;;5118458;28;20916;-87
2021/11/13 06:42:12;;;;;;;9.18;8.23;;;;;;;;;;5123715;28;20575;-88
2021/11/13 06:44:40;;;;;;;10.52;8.25;;;;;;;;;;5119498;28;20568;-86
2021/11/13 06:47:08;;;;;;;10.68;7.78;;;;;;;;;;5106871;28;20211;-87
2021/11/13 06:49:36;;;;;;;8.48;6.55;;;;;;;;;;5106324;28;20176;-86
2021/11/13 06:52:04;;;;;;;11.68;7.85;;;;;;;;;;5119240;28;20180;-87
2021/11/13 06:54:32;;;;;;;9.35;8.20;;;;;;;;;;5121696;28;20194;-86
2021/11/13 06:57:01;;;;;;;9.48;8.15;;;;;;;;;;5122431;28;20275;-85
2021/11/13 06:59:28;;;;;;;12.52;9.25;;;;;;;;;;5125199;28;20253;-86
2021/11/13 07:01:56;;;;;;;11.05;8.35;;;;;;;;;;5121499;28;20188;-83
2021/11/13 07:04:23;;;;;;;11.27;9.27;;;;;;;;;;5123369;28;20203;-86
2021/11/13 07:06:51;;;;;;;11.85;9.55;;;;;;;;;;5104001;28;20219;-85
2021/11/13 07:09:19;;;;;;;13.00;8.52;;;;;;;;;;5105322;28;20200;-86
2021/11/13 07:11:46;;;;;;;12.98;10.25;;;;;;;;;;5105621;28;20259;-86
2021/11/13 07:14:15;;;;;;;13.32;10.32;;;;;;;;;;5107054;28;20211;-86
2021/11/13 07:16:42;;;;;;;12.93;10.50;;;;;;;;;;5106269;28;20196;-87
2021/11/13 07:19:14;;;;;;;10.32;9.00;;;;;;;;;;5107191;28;20287;-87
2021/11/13 07:21:42;;;;;;;13.52;10.18;;;;;;;;;;5105165;28;20300;-88
2021/11/13 07:24:11;;;;;;;11.45;9.10;;;;;;;;;;5103273;28;20208;-89
2021/11/13 07:26:39;;;;;;;13.82;9.25;;;;;;;;;;5103382;28;20200;-86
2021/11/13 07:29:09;;;;;;;12.25;9.15;;;;;;;;;;5104343;28;20636;-87
2021/11/13 07:31:38;;;;;;;11.50;9.23;;;;;;;;;;5103252;28;20220;-88
2021/11/13 07:34:05;;;;;;;10.65;8.98;;;;;;;;;;5098411;28;20186;-88
2021/11/13 07:36:33;;;;;;;11.25;9.27;;;;;;;;;;5102975;28;20240;-86
2021/11/13 07:39:01;;;;;;;11.95;9.85;;;;;;;;;;5101868;28;20199;-87
2021/11/13 07:41:28;;;;;;;12.52;9.63;;;;;;;;;;5098438;28;20696;-88
2021/11/13 07:43:56;;;;;;;13.25;10.25;;;;;;;;;;5099057;28;20260;-88
2021/11/13 07:46:24;;;;;;;10.27;8.90;;;;;;;;;;5099658;28;20224;-89
2021/11/13 07:48:53;;;;;;;11.55;9.15;;;;;;;;;;5101333;28;20181;-88
2021/11/13 07:51:21;;;;;;;11.75;9.68;;;;;;;;;;5101482;28;20615;-89
2021/11/13 07:53:52;;;;;;;10.65;8.63;;;;;;;;;;5102025;28;20196;-88
2021/11/13 07:56:20;;;;;;;11.05;9.70;;;;;;;;;;5098912;28;20238;-89
2021/11/13 07:58:48;;;;;;;10.88;8.95;;;;;;;;;;5081770;28;20254;-88
2021/11/13 08:01:15;;;;;;;11.43;9.18;;;;;;;;;;5084349;28;20217;-89
2021/11/13 08:03:43;;;;;;;13.98;10.02;;;;;;;;;;5080765;28;20228;-89
2021/11/13 08:06:12;;;;;;;12.77;10.35;;;;;;;;;;5083809;28;20220;-89
2021/11/13 08:08:39;;;;;;;12.02;9.43;;;;;;;;;;5100067;28;20199;-88
2021/11/13 08:11:18;;;;;;;12.68;10.00;;;;;;;;;;5101477;28;20251;-89
2021/11/13 08:13:57;;;;;;;13.60;10.32;;;;;;;;;;5079491;28;20647;-88
2021/11/13 08:16:25;;;;;;;11.40;9.25;;;;;;;;;;5079474;28;20200;-89
2021/11/13 08:18:53;;;;;;;12.30;10.77;;;;;;;;;;5080656;28;20205;-90
2021/11/13 08:21:36;;;;;;;14.65;10.73;;;;;;;;;;5081671;28;20225;-90
2021/11/13 08:24:04;;;;;;;13.95;10.80;;;;;;;;;;5082316;28;20208;-89
2021/11/13 08:26:34;;;;;;;13.57;11.18;;;;;;;;;;5081340;28;20207;-89
2021/11/13 08:29:11;;;;;;;11.77;9.45;;;;;;;;;;5084335;28;20197;-88
2021/11/13 08:31:40;;;;;;;14.45;10.75;;;;;;;;;;5081850;28;20241;-89
2021/11/13 08:34:08;;;;;;;14.35;8.95;;;;;;;;;;5080146;28;20645;-89
2021/11/13 08:36:38;;;;;;;14.00;10.88;;;;;;;;;;5083854;28;20623;-90
2021/11/13 08:39:08;;;;;;;15.05;11.50;;;;;;;;;;5081127;28;20184;-87
2021/11/13 08:41:36;;;;;;;15.52;11.18;;;;;;;;;;5084005;28;20270;-88
2021/11/13 08:44:11;;;;;;;15.30;11.30;;;;;;;;;;5084875;28;20203;-89
2021/11/13 08:46:46;;;;;;;12.85;9.80;;;;;;;;;;5084053;28;20538;-88
2021/11/13 08:49:13;;;;;;;15.27;10.43;;;;;;;;;;5087718;28;20220;-89
2021/11/13 08:51:47;;;;;;;11.88;9.63;;;;;;;;;;5086414;28;20244;-89
2021/11/13 08:54:14;;;;;;;12.10;10.82;;;;;;;;;;5088339;28;20221;-89
2021/11/13 08:56:42;;;;;;;12.48;10.48;;;;;;;;;;5092237;28;20189;-89
2021/11/13 08:59:11;;;;;;;15.32;10.60;;;;;;;;;;5090691;28;20272;-89
2021/11/13 09:01:41;;;;;;;13.70;10.07;;;;;;;;;;5089475;28;20614;-89
2021/11/13 09:04:09;;;;;;;10.82;9.27;;;;;;;;;;5090947;28;20228;-89
2021/11/13 09:06:36;;;;;;;12.73;9.95;;;;;;;;;;5089483;28;20201;-88
2021/11/13 09:09:07;;;;;;;11.60;9.57;;;;;;;;;;5090946;28;20304;-89
2021/11/13 09:11:37;;;;;;;15.07;9.77;;;;;;;;;;5088416;28;20288;-88
2021/11/13 09:14:08;;;;;;;10.38;8.85;;;;;;;;;;5086475;28;20647;-89
2021/11/13 09:16:35;;;;;;;13.02;9.48;;;;;;;;;;5081761;28;20241;-88
2021/11/13 09:19:04;;;;;;;11.25;8.15;;;;;;;;;;5080265;28;20181;-88
2021/11/13 09:21:34;;;;;;;9.95;8.95;;;;;;;;;;5083807;28;20598;-90
2021/11/13 09:24:05;;;;;;;10.20;8.90;;;;;;;;;;5098278;28;20191;-89
2021/11/13 09:26:33;;;;;;;10.75;9.60;;;;;;;;;;5124722;28;20279;-89
2021/11/13 09:29:01;;;;;;;11.73;8.73;;;;;;;;;;5126561;28;20227;-88
2021/11/13 09:31:29;;;;;;;8.30;7.45;;;;;;;;;;5126569;28;20250;-89
2021/11/13 09:33:58;;;;;;;10.75;9.48;;;;;;;;;;5125325;28;20271;-89
2021/11/13 09:36:25;;;;;;;9.20;7.68;;;;;;;;;;5111026;28;20223;-89
2021/11/13 09:38:55;;;;;;;9.27;7.97;;;;;;;;;;5103013;28;20193;-87
2021/11/13 09:41:32;;;;;;;9.32;7.07;;;;;;;;;;5100820;28;20252;-89
2021/11/13 09:44:01;;;;;;;8.35;7.07;;;;;;;;;;5103859;28;20216;-88
2021/11/13 09:46:30;;;;;;;11.50;8.63;;;;;;;;;;5116817;28;20208;-89
2021/11/13 09:48:59;;;;;;;8.00;6.85;;;;;;;;;;5106500;28;20264;-89
2021/11/13 09:51:29;;;;;;;8.98;7.97;;;;;;;;;;5103580;28;20242;-89
2021/11/13 09:53:57;;;;;;;7.68;6.57;;;;;;;;;;5105824;28;20189;-88
2021/11/13 09:56:25;;;;;;;9.57;8.32;;;;;;;;;;5106188;28;20184;-89
2021/11/13 09:58:55;;;;;;;6.65;5.95;;;;;;;;;;5103956;28;20275;-88
2021/11/13 10:01:23;;;;;;;8.00;6.88;;;;;;;;;;5105417;28;20319;-88
2021/11/13 10:03:51;;;;;;;7.68;6.72;;;;;;;;;;5107055;28;20184;-88
2021/11/13 10:06:18;;;;;;;9.98;8.95;;;;;;;;;;5106611;28;20196;-89
2021/11/13 10:08:49;;;;;;;10.85;8.48;;;;;;;;;;5103364;28;20224;-89
2021/11/13 10:11:19;;;;;;;9.50;8.07;;;;;;;;;;5104822;28;20230;-88
2021/11/13 10:13:51;;;;;;;12.02;9.88;;;;;;;;;;5106937;28;20227;-87
2021/11/13 10:16:31;;;;;;;10.50;8.88;;;;;;;;;;5107615;28;20204;-89
2021/11/13 10:19:03;;;;;;;10.90;9.25;;;;;;;;;;5106204;28;20200;-87
2021/11/13 10:21:31;;;;;;;9.90;7.55;;;;;;;;;;5106783;28;20220;-87
2021/11/13 10:24:04;;;;;;;14.13;8.52;;;;;;;;;;5105687;28;20276;-87
2021/11/13 10:26:41;;;;;;;12.35;9.38;;;;;;;;;;5098184;28;20252;-89
2021/11/13 10:29:12;;;;;;;12.30;9.90;;;;;;;;;;5095802;28;20212;-86
2021/11/13 10:31:45;;;;;;;10.98;8.65;;;;;;;;;;5100585;28;20682;-88
2021/11/13 10:34:16;;;;;;;11.60;10.27;;;;;;;;;;5098835;28;20271;-88
2021/11/13 10:36:57;;;;;;;11.10;8.43;;;;;;;;;;5105999;28;20196;-87
2021/11/13 10:39:30;;;;;;;9.85;8.85;;;;;;;;;;5111662;28;20183;-88
2021/11/13 10:42:01;;;;;;;10.60;8.70;;;;;;;;;;5095657;28;20203;-88
2021/11/13 10:44:33;;;;;;;11.13;8.82;;;;;;;;;;5095660;28;20198;-88
2021/11/13 10:47:15;;;;;;;9.15;8.02;;;;;;;;;;5096088;28;20176;-87
2021/11/13 10:49:44;;;;;;;12.45;8.38;;;;;;;;;;5094138;28;20304;-88
2021/11/13 10:52:21;;;;;;;9.30;7.70;;;;;;;;;;5095836;28;20337;-87
2021/11/13 10:54:59;;;;;;;10.85;9.05;;;;;;;;;;5095914;28;20272;-88
2021/11/13 10:57:33;;;;;;;9.18;8.00;;;;;;;;;;5094163;28;20226;-87
2021/11/13 11:00:14;;;;;;;8.57;7.43;;;;;;;;;;5094589;28;20224;-88
2021/11/13 11:03:04;;;;;;;12.70;9.43;;;;;;;;;;5094456;28;20199;-88
2021/11/13 11:05:50;;;;;;;11.07;8.68;;;;;;;;;;5094979;28;20199;-89
2021/11/13 11:08:32;;;;;;;11.15;8.70;;;;;;;;;;5097089;28;20567;-89
2021/11/13 11:11:47;;;;;;;10.75;8.85;;;;;;;;;;5095600;28;20217;-88
2021/11/13 11:14:24;;;;;;;9.43;7.55;;;;;;;;;;5093997;28;20208;-88
2021/11/13 11:16:56;;;;;;;10.55;9.05;;;;;;;;;;5093788;28;20658;-89
2021/11/13 11:19:55;;;;;;;11.85;9.90;;;;;;;;;;5094302;28;20208;-88
2021/11/13 11:22:25;;;;;;;9.75;8.52;;;;;;;;;;5094536;28;20208;-88
2021/11/13 11:24:57;;;;;;;12.63;10.10;;;;;;;;;;5095398;28;20730;-89
2021/11/13 11:27:28;;;;;;;14.40;10.07;;;;;;;;;;5095133;28;20611;-87
2021/11/13 11:30:07;;;;;;;10.15;8.45;;;;;;;;;;5094025;28;20235;-89
2021/11/13 11:32:50;;;;;;;10.35;9.25;;;;;;;;;;5054871;28;20182;-86
2021/11/13 11:35:24;;;;;;;10.32;7.90;;;;;;;;;;5055672;28;20206;-87
2021/11/13 11:37:54;;;;;;;8.85;7.95;;;;;;;;;;5055321;28;20203;-87
2021/11/13 11:40:27;;;;;;;11.40;8.57;;;;;;;;;;5053512;28;20268;-88
2021/11/13 11:43:15;;;;;;;10.40;9.02;;;;;;;;;;5034797;28;20217;-88
2021/11/13 11:45:52;;;;;;;9.80;7.93;;;;;;;;;;5035546;28;20174;-88
2021/11/13 11:48:34;;;;;;;13.88;9.82;;;;;;;;;;5036344;28;20212;-88
2021/11/13 11:51:13;;;;;;;11.90;9.02;;;;;;;;;;5036343;28;20305;-87
2021/11/13 11:54:00;;;;;;;9.80;8.55;;;;;;;;;;5042079;28;20209;-88
2021/11/13 11:56:35;;;;;;;9.50;7.80;;;;;;;;;;5056784;28;20229;-87
2021/11/13 11:59:04;;;;;;;12.18;8.93;;;;;;;;;;5057980;28;20207;-86
2021/11/13 12:01:40;;;;;;;12.32;9.32;;;;;;;;;;5067642;28;20221;-88
2021/11/13 12:04:19;;;;;;;8.45;7.50;;;;;;;;;;5062753;28;20203;-89
2021/11/13 12:06:52;;;;;;;8.88;7.57;;;;;;;;;;5076992;28;20257;-86
2021/11/13 12:09:35;;;;;;;9.05;7.57;;;;;;;;;;5074956;28;20225;-88
2021/11/13 12:12:17;;;;;;;10.80;7.68;;;;;;;;;;5075842;28;20200;-87
2021/11/13 12:14:45;;;;;;;10.55;8.27;;;;;;;;;;5075331;28;20639;-88
2021/11/13 12:17:31;;;;;;;8.27;7.35;;;;;;;;;;5074221;28;20227;-88
2021/11/13 12:20:28;;;;;;;8.43;7.35;;;;;;;;;;5074437;28;20220;-89
2021/11/13 12:23:05;;;;;;;10.80;8.70;;;;;;;;;;5074866;28;20205;-87
2021/11/13 12:25:36;;;;;;;8.65;7.40;;;;;;;;;;5076077;28;20192;-87
2021/11/13 12:28:21;;;;;;;6.93;6.13;;;;;;;;;;5073552;28;20208;-88
2021/11/13 12:30:56;;;;;;;9.40;8.50;;;;;;;;;;5083046;28;20231;-86
2021/11/13 12:33:58;;;;;;;9.02;7.20;;;;;;;;;;5094507;28;20193;-87
2021/11/13 12:36:38;;;;;;;8.07;6.65;;;;;;;;;;5071854;28;20200;-89
2021/11/13 12:39:22;;;;;;;8.93;7.78;;;;;;;;;;5072630;28;20262;-88
2021/11/13 12:42:07;;;;;;;9.65;8.15;;;;;;;;;;5072394;28;20303;-89
2021/11/13 12:44:44;;;;;;;10.20;7.93;;;;;;;;;;5074988;28;20205;-85
2021/11/13 12:47:26;;;;;;;8.80;7.10;;;;;;;;;;5073825;28;20196;-86
2021/11/13 12:50:01;;;;;;;10.98;8.07;;;;;;;;;;5074584;28;20598;-86
2021/11/13 12:52:47;;;;;;;10.00;8.02;;;;;;;;;;5084778;28;20187;-87
2021/11/13 12:55:30;;;;;;;8.77;7.28;;;;;;;;;;5097238;28;20550;-87
2021/11/13 12:58:20;;;;;;;6.15;5.55;;;;;;;;;;5097313;28;20207;-86
2021/11/13 13:00:56;;;;;;;6.50;5.78;;;;;;;;;;5100471;28;20221;-90
2021/11/13 13:03:27;;;;;;;6.65;5.57;;;;;;;;;;5098516;28;20705;-87
2021/11/13 13:05:54;;;;;;;5.78;5.18;;;;;;;;;;5097419;28;20188;-88
2021/11/13 13:08:36;;;;;;;5.28;4.78;;;;;;;;;;5096960;28;20214;-88
2021/11/13 13:11:45;;;;;;;4.70;4.30;;;;;;;;;;5095247;28;20224;-88
2021/11/13 13:14:15;;;;;;;5.13;4.63;;;;;;;;;;5095997;28;20180;-88
2021/11/13 13:16:50;;;;;;;6.80;6.10;;;;;;;;;;5095735;28;20567;-88
2021/11/13 13:19:19;;;;;;;6.68;5.97;;;;;;;;;;5095800;28;20172;-88
2021/11/13 13:21:56;;;;;;;7.10;5.18;;;;;;;;;;5095624;28;20220;-88
2021/11/13 13:24:24;;;;;;;4.55;4.15;;;;;;;;;;5095455;28;20654;-88
2021/11/13 13:27:13;;;;;;;4.78;3.83;;;;;;;;;;5095394;28;20219;-88
2021/11/13 13:29:57;;;;;;;5.53;5.03;;;;;;;;;;5095486;28;20220;-88
2021/11/13 13:32:36;;;;;;;5.25;4.68;;;;;;;;;;5095374;28;20315;-88
2021/11/13 13:35:16;;;;;;;5.35;4.85;;;;;;;;;;5095444;28;20193;-88
2021/11/13 13:38:23;;;;;;;5.32;4.82;;;;;;;;;;5095330;28;20206;-88
2021/11/13 13:41:21;;;;;;;6.38;5.55;;;;;;;;;;5095067;28;20299;-88
2021/11/13 13:44:19;;;;;;;6.75;6.05;;;;;;;;;;5095123;28;20552;-88
2021/11/13 13:46:55;;;;;;;9.60;7.07;;;;;;;;;;5094962;28;20654;-88
2021/11/13 13:49:34;;;;;;;8.30;7.07;;;;;;;;;;5095147;28;20634;-88
2021/11/13 13:53:14;;;;;;;8.55;7.65;;;;;;;;;;5095123;28;20200;-89
2021/11/13 13:55:42;;;;;;;9.65;7.85;;;;;;;;;;5094631;28;20192;-90
2021/11/13 13:58:36;;;;;;;7.85;7.05;;;;;;;;;;5094981;28;20189;-88
2021/11/13 14:01:11;;;;;;;10.70;7.85;;;;;;;;;;5095080;28;20656;-90
2021/11/13 14:04:06;;;;;;;10.38;7.68;;;;;;;;;;5094784;28;20192;-91
2021/11/13 14:07:09;;;;;;;9.85;8.48;;;;;;;;;;5094878;28;20271;-90
2021/11/13 14:10:12;;;;;;;9.43;8.48;;;;;;;;;;5094844;28;20200;-89
2021/11/13 14:16:24;;;;;;;10.25;8.32;;;;;;;;;;5012835;28;20182;-88
2021/11/13 14:18:59;;;;;;;12.95;10.20;;;;;;;;;;5012483;28;20203;-90
2021/11/13 14:21:28;;;;;;;15.80;12.13;;;;;;;;;;5069853;28;20224;-90
2021/11/13 14:24:21;;;;;;;10.43;9.25;;;;;;;;;;5094595;28;20207;-89
2021/11/13 14:30:38;;;;;;;9.55;8.45;;;;;;;;;;5093720;28;20255;-88
2021/11/13 14:33:10;;;;;;;10.75;9.65;;;;;;;;;;5094028;28;20239;-88
2021/11/13 14:35:44;;;;;;;11.48;10.27;;;;;;;;;;5093910;28;20219;-88
2021/11/13 14:39:13;;;;;;;17.35;14.25;;;;;;;;;;5093906;28;20287;-88
2021/11/13 14:41:54;;;;;;;11.85;10.65;;;;;;;;;;5093978;28;20244;-89
2021/11/13 14:44:28;;;;;;;9.07;7.57;;;;;;;;;;5093996;28;20631;-88
2021/11/13 14:47:56;;;;;;;7.40;6.43;;;;;;;;;;5094058;28;20196;-89
2021/11/13 14:51:25;;;;;;;8.27;7.47;;;;;;;;;;5093385;28;20230;-89
2021/11/13 14:54:52;;;;;;;8.73;7.82;;;;;;;;;;5093842;28;20180;-88
2021/11/13 14:58:32;;;;;;;11.63;10.52;;;;;;;;;;5093311;28;20283;-89
2021/11/13 15:01:06;;;;;;;10.98;8.30;;;;;;;;;;5093379;28;20216;-88
2021/11/13 15:03:36;;;;;;;8.63;7.70;;;;;;;;;;5093644;28;20192;-87
2021/11/13 15:06:32;;;;;;;10.30;8.40;;;;;;;;;;5093910;28;20200;-89
2021/11/13 15:09:36;;;;;;;8.48;7.35;;;;;;;;;;5093180;28;20687;-88
2021/11/13 15:13:03;;;;;;;8.40;7.50;;;;;;;;;;5093174;28;20393;-88
2021/11/13 15:15:41;;;;;;;8.40;7.30;;;;;;;;;;5092726;28;20203;-88